Time;durP1;ratioP1;P1;durP2;ratioP2;P2;SDS_P1;SDS_P2;PMS_P1;PMS_P2;Temp;Humidity;BMP_temperature;BMP_pressure;BME280_temperature;BME280_humidity;BME280_pressure;Samples;Min_cycle;Max_cycle;Signal;HPM_P1;HPM_P2
2023/12/31 00:00:26;;;;;;;1.48;1.33;;;7.80;99.90;;;;;;5048091;28;20064;-75
2023/12/31 00:02:52;;;;;;;1.67;1.58;;;7.80;99.90;;;;;;5057664;28;20127;-75
2023/12/31 00:05:17;;;;;;;1.33;1.25;;;7.80;99.90;;;;;;5054377;28;20056;-75
2023/12/31 00:07:44;;;;;;;1.15;1.05;;;7.90;99.90;;;;;;5053761;28;20056;-75
2023/12/31 00:10:10;;;;;;;0.60;0.60;;;7.80;99.90;;;;;;5054646;28;20450;-75
2023/12/31 00:12:36;;;;;;;1.10;1.00;;;7.90;99.90;;;;;;5051979;28;20083;-75
2023/12/31 00:15:01;;;;;;;2.15;0.85;;;7.80;99.90;;;;;;5048070;28;20095;-75
2023/12/31 00:17:27;;;;;;;1.75;1.13;;;7.80;99.90;;;;;;5048403;28;20045;-75
2023/12/31 00:19:52;;;;;;;1.08;1.08;;;7.80;99.90;;;;;;5049610;28;20066;-75
2023/12/31 00:22:18;;;;;;;3.50;1.02;;;7.80;99.90;;;;;;5051078;28;20052;-75
2023/12/31 00:24:43;;;;;;;0.63;0.63;;;7.80;99.90;;;;;;5055313;28;20044;-75
2023/12/31 00:27:09;;;;;;;0.88;0.88;;;7.80;99.90;;;;;;5052078;28;20044;-75
2023/12/31 00:29:35;;;;;;;0.75;0.75;;;7.70;99.90;;;;;;5056815;28;20048;-76
2023/12/31 00:32:00;;;;;;;0.82;0.82;;;7.70;99.90;;;;;;5049753;28;20080;-75
2023/12/31 00:34:26;;;;;;;0.63;0.63;;;7.70;99.90;;;;;;5053089;28;20045;-75
2023/12/31 00:36:51;;;;;;;0.88;0.88;;;7.70;99.90;;;;;;5057318;28;20052;-75
2023/12/31 00:39:17;;;;;;;1.25;1.15;;;7.70;99.90;;;;;;5055035;28;20131;-75
2023/12/31 00:41:43;;;;;;;2.85;1.02;;;7.60;99.90;;;;;;5053008;28;20041;-75
2023/12/31 00:44:08;;;;;;;0.68;0.68;;;7.60;99.90;;;;;;5052039;28;20060;-75
2023/12/31 00:46:34;;;;;;;0.85;0.73;;;7.60;99.90;;;;;;5065639;28;20040;-75
2023/12/31 00:48:59;;;;;;;0.85;0.85;;;7.60;99.90;;;;;;5049673;28;20454;-75
2023/12/31 00:51:25;;;;;;;0.70;0.70;;;7.60;99.90;;;;;;5058794;28;20048;-75
2023/12/31 00:53:51;;;;;;;0.93;0.93;;;7.70;99.90;;;;;;5053754;28;20056;-75
2023/12/31 00:56:16;;;;;;;1.52;1.42;;;7.70;99.90;;;;;;5065448;28;20102;-75
2023/12/31 00:58:42;;;;;;;0.82;0.82;;;7.70;99.90;;;;;;5058289;28;20044;-74
2023/12/31 01:01:08;;;;;;;1.25;0.75;;;7.70;99.90;;;;;;5064795;28;20056;-75
2023/12/31 01:03:34;;;;;;;3.17;1.08;;;7.70;99.90;;;;;;5060069;28;20393;-75
2023/12/31 01:06:04;;;;;;;0.50;0.50;;;7.70;99.90;;;;;;5061962;28;20151;-75
2023/12/31 01:08:30;;;;;;;0.60;0.60;;;7.70;99.90;;;;;;5053911;28;20451;-75
2023/12/31 01:10:55;;;;;;;2.90;2.22;;;7.70;99.90;;;;;;5055692;28;20068;-74
2023/12/31 01:13:21;;;;;;;0.82;0.82;;;7.70;99.90;;;;;;5050362;28;20041;-75
2023/12/31 01:15:47;;;;;;;10.32;1.23;;;7.60;99.90;;;;;;5051397;28;20052;-75
2023/12/31 01:18:12;;;;;;;1.27;0.95;;;7.60;99.90;;;;;;5055365;28;20124;-75
2023/12/31 01:20:38;;;;;;;0.80;0.80;;;7.60;99.90;;;;;;5047389;28;20052;-75
2023/12/31 01:23:03;;;;;;;2.03;1.15;;;7.60;99.90;;;;;;5057511;28;20039;-75
2023/12/31 01:25:29;;;;;;;0.88;0.88;;;7.60;99.90;;;;;;5052361;28;20098;-75
2023/12/31 01:27:55;;;;;;;0.95;0.95;;;7.60;99.90;;;;;;5046705;28;20041;-75
2023/12/31 01:30:22;;;;;;;1.25;1.25;;;7.60;99.90;;;;;;5037340;28;20052;-75
2023/12/31 01:32:49;;;;;;;0.73;0.73;;;7.60;99.90;;;;;;5051646;28;20092;-75
2023/12/31 01:35:14;;;;;;;0.85;0.82;;;7.60;99.90;;;;;;5058847;28;20044;-75
2023/12/31 01:37:40;;;;;;;2.25;1.00;;;7.60;99.90;;;;;;5055584;28;20477;-75
2023/12/31 01:40:06;;;;;;;0.73;0.73;;;7.60;99.90;;;;;;5050925;28;20051;-75
2023/12/31 01:42:32;;;;;;;1.35;1.25;;;7.60;99.90;;;;;;5052613;28;20647;-75
2023/12/31 01:44:57;;;;;;;1.08;1.05;;;7.60;99.90;;;;;;5053887;28;20044;-75
2023/12/31 01:47:23;;;;;;;0.88;0.88;;;7.60;99.90;;;;;;5055925;28;20409;-75
2023/12/31 01:49:50;;;;;;;1.45;1.35;;;7.70;99.90;;;;;;5052941;28;20613;-75
2023/12/31 01:52:15;;;;;;;1.70;1.60;;;7.70;99.90;;;;;;5053272;28;20076;-75
2023/12/31 01:54:41;;;;;;;1.02;1.02;;;7.70;99.90;;;;;;5057435;28;20489;-75
2023/12/31 01:57:09;;;;;;;1.60;1.50;;;7.70;99.90;;;;;;5058321;28;20037;-75
2023/12/31 01:59:35;;;;;;;1.30;0.90;;;7.70;99.90;;;;;;5057952;28;20045;-75
2023/12/31 02:02:00;;;;;;;1.48;0.80;;;7.70;99.90;;;;;;5063707;28;20067;-75
2023/12/31 02:04:33;;;;;;;0.80;0.80;;;7.60;99.90;;;;;;5054284;28;20047;-75
2023/12/31 02:07:02;;;;;;;1.13;0.98;;;7.60;99.90;;;;;;5059134;28;20060;-75
2023/12/31 02:09:29;;;;;;;0.73;0.73;;;7.60;99.90;;;;;;5068171;28;20142;-75
2023/12/31 02:11:55;;;;;;;0.73;0.73;;;7.50;99.90;;;;;;5057434;28;20072;-75
2023/12/31 02:14:21;;;;;;;1.75;0.75;;;7.50;99.90;;;;;;5054005;28;20719;-75
2023/12/31 02:16:46;;;;;;;1.38;1.27;;;7.40;99.90;;;;;;5054116;28;20049;-75
2023/12/31 02:19:12;;;;;;;0.60;0.60;;;7.40;99.90;;;;;;5059116;28;20516;-75
2023/12/31 02:21:38;;;;;;;1.10;1.00;;;7.30;99.90;;;;;;5056370;28;20068;-75
2023/12/31 02:24:04;;;;;;;0.70;0.70;;;7.20;99.90;;;;;;5062779;28;20126;-75
2023/12/31 02:26:31;;;;;;;0.40;0.40;;;7.20;99.90;;;;;;5056230;28;20494;-75
2023/12/31 02:28:57;;;;;;;1.63;1.42;;;7.20;99.90;;;;;;5055373;28;20045;-75
2023/12/31 02:31:22;;;;;;;5.32;0.93;;;7.20;99.90;;;;;;5052698;28;20048;-74
2023/12/31 02:33:48;;;;;;;0.70;0.70;;;7.20;99.90;;;;;;5068659;28;20048;-74
2023/12/31 02:36:13;;;;;;;0.52;0.52;;;7.20;99.90;;;;;;5064582;28;20040;-74
2023/12/31 02:38:39;;;;;;;0.73;0.73;;;7.30;99.90;;;;;;5058943;28;20080;-74
2023/12/31 02:41:04;;;;;;;0.70;0.70;;;7.30;99.90;;;;;;5054997;28;20498;-75
2023/12/31 02:43:30;;;;;;;1.00;0.93;;;7.30;99.90;;;;;;5051713;28;20048;-75
2023/12/31 02:45:55;;;;;;;2.05;1.10;;;7.30;99.90;;;;;;5060487;28;20037;-75
2023/12/31 02:48:21;;;;;;;0.50;0.50;;;7.40;99.90;;;;;;5056794;28;20048;-75
2023/12/31 02:50:47;;;;;;;0.85;0.80;;;7.40;99.90;;;;;;5038353;28;20044;-75
2023/12/31 02:53:12;;;;;;;1.38;1.23;;;7.40;99.90;;;;;;5050640;28;20080;-75
2023/12/31 02:55:38;;;;;;;1.08;1.02;;;7.40;99.90;;;;;;5057350;28;20402;-75
2023/12/31 02:58:03;;;;;;;0.80;0.80;;;7.30;99.90;;;;;;5054776;28;20087;-75
2023/12/31 03:00:29;;;;;;;0.60;0.60;;;7.30;99.90;;;;;;5050361;28;20072;-75
2023/12/31 03:02:54;;;;;;;1.10;1.10;;;7.30;99.90;;;;;;5054881;28;20087;-75
2023/12/31 03:05:20;;;;;;;0.55;0.55;;;7.30;99.90;;;;;;5057335;28;20056;-75
2023/12/31 03:07:45;;;;;;;1.85;1.45;;;7.20;99.90;;;;;;5054297;28;20049;-75
2023/12/31 03:10:11;;;;;;;0.55;0.55;;;7.20;99.90;;;;;;5058170;28;20043;-75
2023/12/31 03:12:38;;;;;;;0.85;0.85;;;7.20;99.90;;;;;;5050117;28;20049;-75
2023/12/31 03:15:04;;;;;;;0.90;0.90;;;7.20;99.90;;;;;;5058212;28;20051;-75
2023/12/31 03:17:29;;;;;;;0.65;0.65;;;7.10;99.90;;;;;;5051833;28;20460;-75
2023/12/31 03:19:55;;;;;;;1.55;1.00;;;7.10;99.90;;;;;;5061236;28;20429;-75
2023/12/31 03:22:21;;;;;;;8.57;1.67;;;7.10;99.90;;;;;;5068440;28;20119;-75
2023/12/31 03:24:47;;;;;;;0.55;0.55;;;7.10;99.90;;;;;;5058102;28;20041;-75
2023/12/31 03:27:13;;;;;;;0.57;0.57;;;7.10;99.90;;;;;;5054280;28;20492;-75
2023/12/31 03:29:38;;;;;;;0.95;0.95;;;7.10;99.90;;;;;;5050252;28;20041;-75
2023/12/31 03:32:04;;;;;;;0.57;0.57;;;7.10;99.90;;;;;;5057919;28;20123;-75
2023/12/31 03:34:30;;;;;;;2.58;1.52;;;7.10;99.90;;;;;;5051108;28;20094;-75
2023/12/31 03:36:55;;;;;;;0.60;0.60;;;7.10;99.90;;;;;;5038598;28;20132;-75
2023/12/31 03:39:22;;;;;;;0.63;0.63;;;7.10;99.90;;;;;;5059140;28;20048;-75
2023/12/31 03:41:50;;;;;;;1.05;0.60;;;7.10;99.90;;;;;;5064366;28;20056;-75
2023/12/31 03:44:16;;;;;;;1.30;1.20;;;7.00;99.90;;;;;;5050686;28;20471;-75
2023/12/31 03:46:42;;;;;;;1.38;1.35;;;7.00;99.90;;;;;;5052301;28;20049;-75
2023/12/31 03:49:07;;;;;;;1.48;1.38;;;7.00;99.90;;;;;;5062534;28;20095;-75
2023/12/31 03:51:33;;;;;;;0.57;0.57;;;7.00;99.90;;;;;;5051496;28;20048;-75
2023/12/31 03:53:59;;;;;;;0.60;0.60;;;7.00;99.90;;;;;;5057888;28;20111;-75
2023/12/31 03:56:24;;;;;;;1.60;1.50;;;7.00;99.90;;;;;;5062163;28;20036;-75
2023/12/31 03:58:50;;;;;;;4.63;0.93;;;7.00;99.90;;;;;;5049170;28;20711;-75
2023/12/31 04:01:15;;;;;;;0.90;0.90;;;7.00;99.90;;;;;;5059967;28;20485;-75
2023/12/31 04:03:41;;;;;;;1.25;1.25;;;7.00;99.90;;;;;;5051068;28;20076;-75
2023/12/31 04:06:07;;;;;;;0.93;0.93;;;6.90;99.90;;;;;;5047847;28;20041;-75
2023/12/31 04:08:33;;;;;;;0.63;0.63;;;7.00;99.90;;;;;;5058911;28;20106;-75
2023/12/31 04:10:58;;;;;;;1.17;1.17;;;7.00;99.90;;;;;;5056744;28;20049;-75
2023/12/31 04:13:24;;;;;;;2.08;1.17;;;6.90;99.90;;;;;;5045897;28;20167;-75
2023/12/31 04:15:50;;;;;;;1.38;1.30;;;7.00;99.90;;;;;;5047064;28;20049;-75
2023/12/31 04:18:16;;;;;;;0.95;0.95;;;7.00;99.90;;;;;;5054844;28;20041;-75
2023/12/31 04:20:42;;;;;;;3.42;1.20;;;7.00;99.90;;;;;;5045856;28;20565;-75
2023/12/31 04:23:08;;;;;;;1.08;1.08;;;7.00;99.90;;;;;;5060587;28;20076;-75
2023/12/31 04:25:34;;;;;;;2.15;1.45;;;7.00;99.90;;;;;;5036845;28;20083;-75
2023/12/31 04:27:59;;;;;;;0.73;0.73;;;7.00;99.90;;;;;;5055144;28;20574;-75
2023/12/31 04:30:26;;;;;;;1.38;1.27;;;6.90;99.90;;;;;;5052637;28;20488;-75
2023/12/31 04:32:52;;;;;;;0.77;0.77;;;7.00;99.90;;;;;;5052313;28;20064;-75
2023/12/31 04:35:18;;;;;;;1.23;1.23;;;6.90;99.90;;;;;;5049868;28;20048;-75
2023/12/31 04:37:44;;;;;;;2.25;1.50;;;7.00;99.90;;;;;;5061309;28;20461;-75
2023/12/31 04:40:10;;;;;;;0.88;0.88;;;6.90;99.90;;;;;;5060072;28;20048;-74
2023/12/31 04:42:35;;;;;;;0.70;0.70;;;7.00;99.90;;;;;;5052376;28;20066;-75
2023/12/31 04:45:07;;;;;;;1.02;1.02;;;7.00;99.90;;;;;;5049503;28;20044;-75
2023/12/31 04:47:33;;;;;;;1.33;1.23;;;7.00;99.90;;;;;;5064202;28;20081;-75
2023/12/31 04:49:59;;;;;;;1.40;1.20;;;7.00;99.90;;;;;;5050763;28;20515;-75
2023/12/31 04:52:25;;;;;;;8.20;1.35;;;7.00;99.90;;;;;;5051419;28;20044;-75
2023/12/31 04:54:51;;;;;;;1.27;0.82;;;7.00;99.90;;;;;;5049265;28;20136;-75
2023/12/31 04:57:17;;;;;;;0.47;0.47;;;7.00;99.90;;;;;;5031378;28;20135;-74
2023/12/31 04:59:42;;;;;;;3.13;1.42;;;7.00;99.90;;;;;;5050895;28;20048;-75
2023/12/31 05:02:08;;;;;;;6.18;1.00;;;7.00;99.90;;;;;;5052863;28;20122;-75
2023/12/31 05:04:33;;;;;;;1.00;0.95;;;7.00;99.90;;;;;;5047272;28;20539;-75
2023/12/31 05:06:59;;;;;;;0.98;0.98;;;7.10;99.90;;;;;;5048502;28;20060;-75
2023/12/31 05:09:25;;;;;;;0.65;0.65;;;7.00;99.90;;;;;;5047915;28;20036;-75
2023/12/31 05:11:50;;;;;;;1.42;1.38;;;7.10;99.90;;;;;;5054752;28;20053;-75
2023/12/31 05:14:16;;;;;;;0.60;0.60;;;7.10;99.90;;;;;;5053318;28;20045;-74
2023/12/31 05:16:42;;;;;;;1.23;1.20;;;7.10;99.90;;;;;;5054159;28;20490;-75
2023/12/31 05:19:07;;;;;;;1.63;1.38;;;7.10;99.90;;;;;;5046797;28;20049;-75
2023/12/31 05:21:34;;;;;;;1.40;1.15;;;7.10;99.90;;;;;;5049223;28;20527;-75
2023/12/31 05:24:00;;;;;;;1.17;0.98;;;7.10;99.90;;;;;;5052505;28;20049;-75
2023/12/31 05:26:25;;;;;;;0.70;0.70;;;7.10;99.90;;;;;;5050819;28;20045;-75
2023/12/31 05:28:52;;;;;;;0.85;0.85;;;7.10;99.90;;;;;;5049485;28;20394;-75
2023/12/31 05:31:17;;;;;;;1.00;1.00;;;7.10;99.90;;;;;;5051868;28;20052;-75
2023/12/31 05:33:44;;;;;;;0.95;0.95;;;7.20;99.90;;;;;;5045652;28;20044;-75
2023/12/31 05:36:10;;;;;;;1.45;1.35;;;7.20;99.90;;;;;;5045631;28;20395;-75
2023/12/31 05:38:36;;;;;;;0.68;0.68;;;7.10;99.90;;;;;;5057606;28;20044;-75
2023/12/31 05:41:02;;;;;;;0.60;0.60;;;7.20;99.90;;;;;;5055537;28;20036;-75
2023/12/31 05:43:28;;;;;;;1.65;1.48;;;7.20;99.90;;;;;;5060970;28;20559;-75
2023/12/31 05:45:53;;;;;;;1.30;1.27;;;7.20;99.90;;;;;;5055706;28;20059;-76
2023/12/31 05:48:19;;;;;;;0.88;0.88;;;7.20;99.90;;;;;;5059765;28;20055;-75
2023/12/31 05:50:46;;;;;;;0.63;0.63;;;7.20;99.90;;;;;;5053087;28;20114;-75
2023/12/31 05:53:13;;;;;;;1.75;1.00;;;7.20;99.90;;;;;;5048837;28;20139;-75
2023/12/31 05:55:39;;;;;;;0.60;0.60;;;7.20;99.90;;;;;;5048229;28;20076;-76
2023/12/31 05:58:04;;;;;;;1.13;1.00;;;7.20;99.90;;;;;;5046662;28;20076;-76
2023/12/31 06:00:30;;;;;;;1.98;1.80;;;7.20;99.90;;;;;;5033114;28;20179;-75
2023/12/31 06:02:55;;;;;;;2.15;1.83;;;7.20;99.90;;;;;;5054161;28;20127;-75
2023/12/31 06:05:21;;;;;;;3.15;1.50;;;7.20;99.90;;;;;;5044576;28;20205;-75
2023/12/31 06:07:47;;;;;;;1.02;1.02;;;7.20;99.90;;;;;;5049844;28;20098;-75
2023/12/31 06:10:13;;;;;;;1.45;1.35;;;7.20;99.90;;;;;;5057636;28;20045;-75
2023/12/31 06:12:38;;;;;;;1.02;1.02;;;7.20;99.90;;;;;;5053595;28;20047;-75
2023/12/31 06:15:06;;;;;;;3.75;1.42;;;7.20;99.90;;;;;;5066970;28;20049;-76
2023/12/31 06:17:36;;;;;;;2.43;1.07;;;7.30;99.90;;;;;;5049450;28;20041;-75
2023/12/31 06:20:02;;;;;;;1.70;1.60;;;7.30;99.90;;;;;;5054355;28;20812;-75
2023/12/31 06:22:28;;;;;;;1.05;1.05;;;7.30;99.90;;;;;;5058095;28;20059;-75
2023/12/31 06:24:54;;;;;;;3.05;1.67;;;7.40;99.90;;;;;;5053238;28;20049;-75
2023/12/31 06:27:19;;;;;;;0.98;0.98;;;7.40;99.90;;;;;;5045296;28;20988;-75
2023/12/31 06:29:45;;;;;;;0.98;0.98;;;7.40;99.90;;;;;;5051766;28;20742;-75
2023/12/31 06:32:10;;;;;;;1.08;1.08;;;7.40;99.90;;;;;;5037584;28;20044;-75
2023/12/31 06:34:36;;;;;;;1.15;1.05;;;7.40;99.90;;;;;;5050856;28;20045;-75
2023/12/31 06:37:02;;;;;;;2.90;1.38;;;7.50;99.90;;;;;;5051712;28;20541;-76
2023/12/31 06:39:29;;;;;;;3.42;1.55;;;7.50;99.90;;;;;;5067986;28;20154;-75
2023/12/31 06:41:55;;;;;;;1.60;1.50;;;7.50;99.90;;;;;;5060433;28;20098;-75
2023/12/31 06:44:21;;;;;;;0.77;0.77;;;7.50;99.90;;;;;;5060668;28;20080;-76
2023/12/31 06:46:47;;;;;;;1.45;1.15;;;7.60;99.90;;;;;;5039509;28;20533;-76
2023/12/31 06:49:13;;;;;;;1.27;1.23;;;7.60;99.90;;;;;;5046442;28;20156;-75
2023/12/31 06:51:39;;;;;;;0.93;0.90;;;7.60;99.90;;;;;;5055656;28;20052;-76
2023/12/31 06:54:05;;;;;;;1.17;1.08;;;7.70;99.90;;;;;;5052100;28;20048;-75
2023/12/31 06:56:31;;;;;;;1.25;1.25;;;7.70;99.90;;;;;;5048535;28;20045;-75
2023/12/31 06:58:56;;;;;;;1.70;0.95;;;7.70;99.90;;;;;;5053077;28;20052;-75
2023/12/31 07:01:22;;;;;;;1.38;1.27;;;7.80;99.90;;;;;;5055009;28;20516;-75
2023/12/31 07:03:48;;;;;;;0.82;0.82;;;7.80;99.90;;;;;;5052936;28;20779;-75
2023/12/31 07:06:13;;;;;;;3.72;2.50;;;7.80;99.90;;;;;;5047449;28;20132;-75
2023/12/31 07:08:39;;;;;;;2.53;1.50;;;7.80;99.90;;;;;;5057259;28;20094;-75
2023/12/31 07:11:05;;;;;;;4.97;3.17;;;7.90;99.90;;;;;;5053012;28;20109;-75
2023/12/31 07:13:31;;;;;;;0.80;0.80;;;7.90;99.90;;;;;;5048987;28;20490;-75
2023/12/31 07:16:00;;;;;;;0.77;0.77;;;7.90;99.90;;;;;;5053998;28;20041;-75
2023/12/31 07:18:26;;;;;;;1.02;1.02;;;7.90;99.90;;;;;;5051987;28;20045;-75
2023/12/31 07:20:54;;;;;;;2.28;1.67;;;7.90;99.90;;;;;;5047494;28;20087;-75
2023/12/31 07:23:20;;;;;;;;;;;7.90;99.90;;;;;;5057877;28;20543;-76
2023/12/31 07:25:45;;;;;;;1.17;1.10;;;7.90;99.90;;;;;;5054813;28;19929;-75
2023/12/31 07:28:11;;;;;;;0.88;0.88;;;7.90;99.90;;;;;;5045975;28;20119;-76
2023/12/31 07:30:39;;;;;;;2.45;2.25;;;7.90;99.90;;;;;;5049785;28;20036;-76
2023/12/31 07:33:05;;;;;;;0.95;0.95;;;7.90;99.90;;;;;;5053815;28;20061;-75
2023/12/31 07:35:34;;;;;;;5.68;2.28;;;7.90;99.90;;;;;;5057336;28;20049;-75
2023/12/31 07:38:01;;;;;;;1.35;1.25;;;7.90;99.90;;;;;;5051088;28;20106;-75
2023/12/31 07:40:26;;;;;;;1.88;1.77;;;7.90;99.90;;;;;;5033916;28;20047;-75
2023/12/31 07:42:52;;;;;;;4.00;2.10;;;7.90;99.90;;;;;;5047125;28;20048;-75
2023/12/31 07:45:18;;;;;;;1.48;1.38;;;7.90;99.90;;;;;;5059294;28;20051;-75
2023/12/31 07:47:43;;;;;;;1.20;1.02;;;7.90;99.90;;;;;;5055725;28;20082;-75
2023/12/31 07:50:09;;;;;;;1.17;1.08;;;7.90;99.90;;;;;;5061811;28;20079;-75
2023/12/31 07:52:35;;;;;;;1.35;1.25;;;8.00;99.90;;;;;;5050456;28;20080;-75
2023/12/31 07:55:03;;;;;;;1.63;1.52;;;8.00;99.90;;;;;;5049751;28;20041;-75
2023/12/31 07:57:28;;;;;;;0.93;0.93;;;8.00;99.90;;;;;;5048806;28;20055;-75
2023/12/31 07:59:54;;;;;;;1.98;1.88;;;7.90;99.90;;;;;;5060750;28;20049;-75
2023/12/31 08:02:20;;;;;;;0.98;0.88;;;8.00;99.90;;;;;;5053332;28;20182;-75
2023/12/31 08:04:45;;;;;;;2.80;1.92;;;8.00;99.90;;;;;;5050986;28;20055;-75
2023/12/31 08:07:11;;;;;;;1.52;1.42;;;8.00;99.90;;;;;;5053172;28;20049;-75
2023/12/31 08:09:37;;;;;;;2.03;1.90;;;8.00;99.90;;;;;;5050657;28;20045;-75
2023/12/31 08:12:03;;;;;;;1.05;1.05;;;8.00;99.90;;;;;;5053916;28;20077;-75
2023/12/31 08:14:29;;;;;;;0.98;0.98;;;8.00;99.90;;;;;;5055475;28;21149;-75
2023/12/31 08:16:55;;;;;;;0.93;0.93;;;8.00;99.90;;;;;;5050122;28;20088;-74
2023/12/31 08:19:20;;;;;;;0.80;0.80;;;8.00;99.90;;;;;;5050151;28;20133;-74
2023/12/31 08:21:46;;;;;;;1.30;0.77;;;8.00;99.90;;;;;;5057222;28;20412;-75
2023/12/31 08:24:18;;;;;;;2.25;2.05;;;8.00;99.90;;;;;;5056792;28;20229;-75
2023/12/31 08:26:45;;;;;;;0.70;0.70;;;8.00;99.90;;;;;;5056209;28;20055;-74
2023/12/31 08:29:11;;;;;;;1.42;1.33;;;8.10;99.90;;;;;;5049615;28;20044;-74
2023/12/31 08:31:37;;;;;;;1.05;1.05;;;8.00;99.90;;;;;;5063090;28;20123;-74
2023/12/31 08:34:02;;;;;;;2.00;1.17;;;8.10;99.90;;;;;;5055658;28;20170;-75
2023/12/31 08:36:28;;;;;;;2.15;1.67;;;8.10;99.90;;;;;;5043527;28;20470;-75
2023/12/31 08:38:54;;;;;;;3.08;1.02;;;8.10;99.90;;;;;;5061008;28;20040;-74
2023/12/31 08:41:20;;;;;;;1.00;1.00;;;8.20;99.90;;;;;;5046123;28;20498;-74
2023/12/31 08:43:47;;;;;;;0.93;0.93;;;8.20;99.90;;;;;;5051409;28;20132;-74
2023/12/31 08:46:13;;;;;;;1.38;1.27;;;8.20;99.90;;;;;;5052336;28;20087;-74
2023/12/31 08:48:38;;;;;;;4.72;3.83;;;8.20;99.90;;;;;;5052173;28;20144;-75
2023/12/31 08:51:04;;;;;;;0.82;0.82;;;8.20;99.90;;;;;;5047678;28;20490;-75
2023/12/31 08:53:30;;;;;;;1.85;1.63;;;8.20;99.90;;;;;;5050596;28;20072;-75
2023/12/31 08:55:55;;;;;;;1.10;1.10;;;8.30;99.90;;;;;;5051723;28;20051;-74
2023/12/31 08:58:21;;;;;;;1.20;1.10;;;8.30;99.90;;;;;;5044699;28;20083;-74
2023/12/31 09:00:46;;;;;;;3.50;1.35;;;8.30;99.90;;;;;;5053122;28;20048;-75
2023/12/31 09:03:12;;;;;;;0.82;0.82;;;8.30;99.90;;;;;;5053870;28;20028;-74
2023/12/31 09:05:38;;;;;;;2.33;2.22;;;8.40;99.90;;;;;;5048076;28;20057;-74
2023/12/31 09:08:04;;;;;;;1.50;1.40;;;8.40;99.90;;;;;;5054541;28;20643;-75
2023/12/31 09:10:30;;;;;;;0.52;0.50;;;8.40;99.90;;;;;;5044136;28;20174;-74
2023/12/31 09:12:55;;;;;;;1.30;1.17;;;8.40;99.90;;;;;;5061891;28;20594;-75
2023/12/31 09:15:22;;;;;;;0.90;0.80;;;8.50;99.90;;;;;;5052912;28;20048;-74
2023/12/31 09:17:47;;;;;;;0.70;0.70;;;8.50;99.90;;;;;;5062531;28;20098;-75
2023/12/31 09:20:13;;;;;;;0.55;0.55;;;8.50;99.90;;;;;;5052553;28;20405;-74
2023/12/31 09:22:39;;;;;;;2.55;0.70;;;8.50;99.90;;;;;;5056448;28;20513;-74
2023/12/31 09:25:08;;;;;;;1.63;1.50;;;8.50;99.90;;;;;;5052772;28;20078;-74
2023/12/31 09:27:34;;;;;;;1.42;1.33;;;8.50;99.90;;;;;;5048881;28;20044;-75
2023/12/31 09:30:00;;;;;;;0.85;0.80;;;8.50;99.90;;;;;;5048832;28;20063;-75
2023/12/31 09:32:25;;;;;;;1.08;1.02;;;8.50;99.90;;;;;;5051529;28;20033;-74
2023/12/31 09:34:51;;;;;;;0.93;0.93;;;8.60;99.90;;;;;;5049421;28;20056;-74
2023/12/31 09:37:19;;;;;;;1.30;1.17;;;8.60;99.90;;;;;;5052360;28;20135;-74
2023/12/31 09:39:46;;;;;;;1.00;0.98;;;8.60;99.90;;;;;;5057943;28;20413;-75
2023/12/31 09:42:13;;;;;;;1.88;1.70;;;8.60;99.90;;;;;;5053661;28;20418;-75
2023/12/31 09:44:43;;;;;;;1.05;1.02;;;8.60;99.90;;;;;;5048949;28;20256;-74
2023/12/31 09:47:09;;;;;;;1.38;1.35;;;8.60;99.90;;;;;;5053993;28;20049;-74
2023/12/31 09:49:36;;;;;;;0.77;0.75;;;8.60;99.90;;;;;;5054874;28;20045;-74
2023/12/31 09:52:03;;;;;;;1.55;1.35;;;8.60;99.90;;;;;;5027044;28;20695;-75
2023/12/31 09:54:33;;;;;;;3.90;1.23;;;8.60;99.90;;;;;;5053966;28;20033;-75
2023/12/31 09:56:59;;;;;;;6.80;1.63;;;8.70;99.90;;;;;;5051440;28;20041;-74
2023/12/31 09:59:26;;;;;;;1.13;1.10;;;8.70;99.90;;;;;;5041757;28;20048;-75
2023/12/31 10:01:56;;;;;;;1.23;1.13;;;8.70;99.90;;;;;;5045678;28;20342;-75
2023/12/31 10:04:22;;;;;;;1.13;1.13;;;8.70;99.90;;;;;;5047866;28;20151;-75
2023/12/31 10:06:50;;;;;;;2.08;1.98;;;8.80;99.90;;;;;;5054702;28;20267;-75
2023/12/31 10:09:19;;;;;;;1.73;1.63;;;8.80;99.90;;;;;;5059571;28;20135;-75
2023/12/31 10:11:45;;;;;;;3.65;1.92;;;8.80;99.90;;;;;;5060329;28;20067;-74
2023/12/31 10:14:12;;;;;;;2.67;1.75;;;8.80;99.90;;;;;;5063959;28;20803;-75
2023/12/31 10:16:43;;;;;;;0.73;0.73;;;8.90;99.90;;;;;;5058640;28;20135;-75
2023/12/31 10:19:13;;;;;;;1.75;1.65;;;8.90;99.90;;;;;;5062769;28;20469;-75
2023/12/31 10:21:43;;;;;;;1.92;1.83;;;8.90;99.90;;;;;;5057883;28;20048;-75
2023/12/31 10:24:09;;;;;;;1.15;1.15;;;9.00;99.90;;;;;;5057618;28;20049;-75
2023/12/31 10:26:35;;;;;;;2.22;2.13;;;9.00;99.90;;;;;;5056211;28;20510;-74
2023/12/31 10:29:01;;;;;;;2.97;2.72;;;9.00;99.90;;;;;;5052808;28;20418;-74
2023/12/31 10:31:27;;;;;;;1.08;1.08;;;9.10;99.90;;;;;;5053391;28;20501;-74
2023/12/31 10:33:53;;;;;;;1.95;1.85;;;9.10;99.90;;;;;;5057835;28;20130;-75
2023/12/31 10:36:23;;;;;;;1.95;1.65;;;9.10;99.90;;;;;;5054387;28;20501;-74
2023/12/31 10:38:50;;;;;;;3.03;2.20;;;9.20;99.90;;;;;;5061100;28;20060;-74
2023/12/31 10:41:21;;;;;;;2.80;1.90;;;9.20;99.90;;;;;;5052027;28;20413;-75
2023/12/31 10:43:50;;;;;;;2.55;2.45;;;9.30;99.90;;;;;;5050171;28;20084;-74
2023/12/31 10:46:18;;;;;;;2.38;2.15;;;9.30;99.90;;;;;;5056538;28;20130;-75
2023/12/31 10:49:01;;;;;;;2.53;2.33;;;9.40;99.90;;;;;;5057380;28;20498;-74
2023/12/31 10:51:26;;;;;;;2.22;2.13;;;9.40;99.90;;;;;;5064498;28;20036;-74
2023/12/31 10:54:01;;;;;;;1.85;1.75;;;9.50;99.90;;;;;;5054715;28;20052;-74
2023/12/31 10:56:27;;;;;;;2.92;2.13;;;9.60;99.90;;;;;;5058831;28;20048;-74
2023/12/31 10:58:57;;;;;;;1.73;1.63;;;9.60;99.90;;;;;;5060572;28;20061;-74
2023/12/31 11:01:24;;;;;;;2.60;2.40;;;9.70;99.90;;;;;;5060978;28;20502;-74
2023/12/31 11:03:53;;;;;;;2.50;1.23;;;9.80;99.90;;;;;;5059186;28;20081;-75
2023/12/31 11:06:19;;;;;;;2.92;2.63;;;9.80;99.90;;;;;;5055386;28;20497;-74
2023/12/31 11:08:46;;;;;;;2.42;1.50;;;9.80;99.90;;;;;;5051754;28;20045;-75
2023/12/31 11:11:14;;;;;;;3.22;1.48;;;9.80;99.90;;;;;;5052476;28;20101;-74
2023/12/31 11:13:43;;;;;;;4.78;3.22;;;9.80;99.90;;;;;;5049894;28;20044;-74
2023/12/31 11:16:47;;;;;;;5.53;2.95;;;9.80;99.90;;;;;;5057122;28;20518;-75
2023/12/31 11:19:31;;;;;;;2.00;1.45;;;9.80;99.90;;;;;;5059374;28;20048;-75
2023/12/31 11:22:29;;;;;;;4.13;2.88;;;9.80;99.90;;;;;;5054564;28;20052;-75
2023/12/31 11:24:57;;;;;;;1.38;1.33;;;9.70;99.90;;;;;;5056529;28;20524;-75
2023/12/31 11:27:27;;;;;;;4.70;3.10;;;9.70;99.90;;;;;;5056971;28;20045;-75
2023/12/31 11:29:54;;;;;;;1.25;1.20;;;9.70;99.90;;;;;;5048429;28;20045;-75
2023/12/31 11:32:20;;;;;;;2.55;2.35;;;9.70;99.90;;;;;;5048908;28;20056;-75
2023/12/31 11:34:52;;;;;;;1.70;1.40;;;9.70;99.90;;;;;;5059726;28;20052;-75
2023/12/31 11:37:17;;;;;;;1.98;1.65;;;9.70;99.90;;;;;;5053970;28;20780;-74
2023/12/31 11:39:47;;;;;;;1.85;1.75;;;9.70;99.90;;;;;;5050932;28;20060;-74
2023/12/31 11:42:13;;;;;;;1.40;1.30;;;9.70;99.90;;;;;;5057988;28;20086;-74
2023/12/31 11:44:40;;;;;;;1.48;1.08;;;9.70;99.90;;;;;;5050626;28;20565;-74
2023/12/31 11:47:20;;;;;;;3.97;1.57;;;9.70;99.90;;;;;;5049987;28;20402;-75
2023/12/31 11:49:50;;;;;;;1.80;1.70;;;9.70;99.90;;;;;;5058811;28;20314;-75
2023/12/31 11:52:32;;;;;;;0.77;0.77;;;9.70;99.90;;;;;;5065366;28;20528;-74
2023/12/31 11:55:01;;;;;;;7.93;2.15;;;9.70;99.90;;;;;;5054060;28;20074;-74
2023/12/31 11:57:27;;;;;;;1.40;1.30;;;9.70;99.90;;;;;;5060011;28;20044;-74
2023/12/31 11:59:55;;;;;;;0.73;0.73;;;9.80;99.90;;;;;;5055483;28;20049;-74
2023/12/31 12:02:21;;;;;;;4.05;2.80;;;9.70;99.90;;;;;;5052780;28;20040;-74
2023/12/31 12:04:47;;;;;;;5.22;1.90;;;9.70;99.90;;;;;;5064888;28;20048;-74
2023/12/31 12:07:13;;;;;;;2.00;1.88;;;9.60;99.90;;;;;;5051933;28;20502;-74
2023/12/31 12:09:39;;;;;;;1.75;1.65;;;9.50;99.90;;;;;;5058377;28;20529;-74
2023/12/31 12:12:06;;;;;;;3.65;2.15;;;9.30;99.90;;;;;;5056270;28;20052;-74
2023/12/31 12:14:33;;;;;;;2.30;2.13;;;9.10;99.90;;;;;;5056924;28;20052;-74
2023/12/31 12:17:00;;;;;;;1.25;1.25;;;9.00;99.90;;;;;;5052768;28;20052;-74
2023/12/31 12:19:26;;;;;;;0.57;0.57;;;8.90;99.90;;;;;;5054331;28;20432;-73
2023/12/31 12:21:52;;;;;;;0.82;0.80;;;8.70;99.90;;;;;;5056930;28;20052;-73
2023/12/31 12:24:18;;;;;;;1.05;0.95;;;8.60;99.90;;;;;;5065725;28;20132;-73
2023/12/31 12:26:48;;;;;;;0.80;0.80;;;8.50;99.90;;;;;;5056020;28;20040;-73
2023/12/31 12:29:15;;;;;;;0.50;0.50;;;8.40;99.90;;;;;;5047938;28;20159;-74
2023/12/31 12:31:47;;;;;;;0.70;0.70;;;8.20;99.90;;;;;;5052160;28;20128;-74
2023/12/31 12:34:16;;;;;;;1.73;1.05;;;8.20;99.90;;;;;;5053978;28;20071;-73
2023/12/31 12:36:42;;;;;;;2.40;2.20;;;8.10;99.90;;;;;;5062485;28;20036;-73
2023/12/31 12:39:22;;;;;;;3.95;2.92;;;8.10;99.90;;;;;;5066186;28;20059;-74
2023/12/31 12:41:50;;;;;;;1.58;1.52;;;8.10;99.90;;;;;;5047238;28;20056;-74
2023/12/31 12:44:16;;;;;;;2.30;1.67;;;8.10;99.90;;;;;;5056749;28;20044;-73
2023/12/31 12:46:43;;;;;;;1.65;1.55;;;8.10;99.90;;;;;;5050461;28;20041;-74
2023/12/31 12:49:10;;;;;;;5.97;3.38;;;8.10;99.90;;;;;;5050803;28;20071;-74
2023/12/31 12:51:36;;;;;;;12.63;2.38;;;8.10;99.90;;;;;;5050804;28;20466;-74
2023/12/31 12:54:02;;;;;;;3.38;2.42;;;8.10;99.90;;;;;;5064860;28;20709;-74